Terminal Aerodrome Forecast
Issued by NWS Portland, ME

Home | Current Version | Previous Version | Text Only | Print | Product List | Glossary On
Versions: 1 2 3 4 5 6 7 8 9 10 11 12 13 14 15 16 17 18
037
FTUS41 KGYX 282320
TAFPWM
TAF
KPWM 282320Z 2900/2924 16004KT P6SM BKN050 BKN250
     FM290800 VRB03KT 4SM BR OVC050
     FM291400 10004KT P6SM OVC050=

USA.gov is the U.S. government's official web portal to all federal, state and local government web resources and services.